Time;durP1;ratioP1;P1;durP2;ratioP2;P2;SDS_P1;SDS_P2;PMS_P1;PMS_P2;Temp;Humidity;BMP_temperature;BMP_pressure;BME280_temperature;BME280_humidity;BME280_pressure;Samples;Min_cycle;Max_cycle;Signal;HPM_P1;HPM_P2
2022/03/20 00:01:53;;;;;;;5.10;4.60;;;;;;;;;;5050455;28;20048;-89
2022/03/20 00:04:19;;;;;;;6.57;5.15;;;;;;;;;;5051914;28;20033;-87
2022/03/20 00:06:45;;;;;;;5.95;5.18;;;;;;;;;;5054019;28;20515;-88
2022/03/20 00:09:11;;;;;;;6.30;4.85;;;;;;;;;;5045480;28;20044;-89
2022/03/20 00:11:37;;;;;;;7.45;5.20;;;;;;;;;;5051333;28;20113;-86
2022/03/20 00:14:03;;;;;;;5.63;4.70;;;;;;;;;;5048847;28;20084;-88
2022/03/20 00:16:31;;;;;;;6.63;5.25;;;;;;;;;;5029778;28;20041;-88
2022/03/20 00:18:58;;;;;;;6.43;5.25;;;;;;;;;;5053515;28;20489;-88
2022/03/20 00:21:24;;;;;;;7.30;5.30;;;;;;;;;;5059698;28;20103;-90
2022/03/20 00:23:50;;;;;;;6.32;4.68;;;;;;;;;;5054519;28;20098;-88
2022/03/20 00:26:18;;;;;;;7.47;4.55;;;;;;;;;;5030622;28;20057;-88
2022/03/20 00:28:44;;;;;;;6.15;4.80;;;;;;;;;;5049615;28;20056;-86
2022/03/20 00:31:11;;;;;;;7.72;5.10;;;;;;;;;;5056868;28;20043;-87
2022/03/20 00:33:37;;;;;;;6.30;4.95;;;;;;;;;;5033135;28;20056;-87
2022/03/20 00:36:03;;;;;;;7.68;5.22;;;;;;;;;;5028609;28;20053;-88
2022/03/20 00:38:29;;;;;;;6.00;5.25;;;;;;;;;;5031984;28;20131;-83
2022/03/20 00:40:55;;;;;;;6.55;5.32;;;;;;;;;;5029678;28;20132;-85
2022/03/20 00:43:21;;;;;;;5.80;5.15;;;;;;;;;;5031962;28;20055;-85
2022/03/20 00:45:47;;;;;;;6.80;5.25;;;;;;;;;;5049712;28;20115;-86
2022/03/20 00:48:13;;;;;;;7.15;5.13;;;;;;;;;;5024831;28;20116;-86
2022/03/20 00:50:40;;;;;;;6.07;5.10;;;;;;;;;;5032334;28;20429;-85
2022/03/20 00:53:06;;;;;;;6.72;5.55;;;;;;;;;;5025200;28;20045;-86
2022/03/20 00:55:32;;;;;;;6.07;5.45;;;;;;;;;;5033618;28;20048;-87
2022/03/20 00:58:01;;;;;;;6.85;5.13;;;;;;;;;;5048484;28;20131;-86
2022/03/20 01:00:27;;;;;;;5.35;4.85;;;;;;;;;;5032427;28;20037;-86
2022/03/20 01:02:53;;;;;;;5.70;5.10;;;;;;;;;;5031432;28;20044;-86
2022/03/20 01:05:19;;;;;;;5.38;4.88;;;;;;;;;;5049111;28;20396;-86
2022/03/20 01:07:45;;;;;;;7.45;5.20;;;;;;;;;;5028847;28;20134;-85
2022/03/20 01:10:11;;;;;;;5.90;5.30;;;;;;;;;;5045292;28;20374;-85
2022/03/20 01:12:39;;;;;;;5.88;5.28;;;;;;;;;;5032115;28;20048;-86
2022/03/20 01:15:06;;;;;;;7.53;5.22;;;;;;;;;;5035017;28;20044;-87
2022/03/20 01:17:32;;;;;;;8.60;5.35;;;;;;;;;;5046860;28;20049;-86
2022/03/20 01:19:58;;;;;;;6.53;5.10;;;;;;;;;;5030508;28;20102;-86
2022/03/20 01:22:24;;;;;;;6.00;5.40;;;;;;;;;;5048669;28;20040;-86
2022/03/20 01:24:50;;;;;;;6.60;5.10;;;;;;;;;;5031874;28;20110;-86
2022/03/20 01:27:16;;;;;;;7.38;5.13;;;;;;;;;;5047427;28;20413;-86
2022/03/20 01:29:43;;;;;;;7.38;5.75;;;;;;;;;;5047606;28;20072;-86
2022/03/20 01:32:10;;;;;;;7.38;5.60;;;;;;;;;;5028612;28;20053;-86
2022/03/20 01:34:36;;;;;;;7.70;5.65;;;;;;;;;;5053865;28;20056;-86
2022/03/20 01:37:02;;;;;;;6.97;5.53;;;;;;;;;;5057672;28;20203;-86
2022/03/20 01:39:38;;;;;;;6.82;5.40;;;;;;;;;;5056767;28;20052;-87
2022/03/20 01:42:05;;;;;;;7.57;6.00;;;;;;;;;;5050564;28;20041;-85
2022/03/20 01:44:32;;;;;;;6.45;5.70;;;;;;;;;;5054742;28;20048;-86
2022/03/20 01:46:58;;;;;;;7.05;5.35;;;;;;;;;;5053960;28;20071;-85
2022/03/20 01:49:24;;;;;;;6.03;5.30;;;;;;;;;;5060252;28;20048;-86
2022/03/20 01:54:35;;;;;;;5.82;5.10;;;;;;;;;;5040804;28;20493;-86
2022/03/20 01:57:01;;;;;;;6.95;5.60;;;;;;;;;;5058068;28;20060;-85
2022/03/20 01:59:30;;;;;;;6.70;5.47;;;;;;;;;;5057902;28;20120;-86
2022/03/20 02:01:58;;;;;;;6.38;5.22;;;;;;;;;;5062767;28;20037;-86
2022/03/20 02:04:25;;;;;;;7.28;5.40;;;;;;;;;;5053049;28;20397;-86
2022/03/20 02:06:51;;;;;;;9.13;5.50;;;;;;;;;;5031392;28;20505;-86
2022/03/20 02:09:17;;;;;;;8.38;5.25;;;;;;;;;;5057369;28;20032;-85
2022/03/20 02:11:44;;;;;;;7.65;6.20;;;;;;;;;;5030621;28;20120;-85
2022/03/20 02:14:10;;;;;;;6.57;5.82;;;;;;;;;;5053962;28;20076;-86
2022/03/20 02:16:38;;;;;;;6.82;5.80;;;;;;;;;;5033096;28;20122;-86
2022/03/20 02:19:08;;;;;;;7.47;6.05;;;;;;;;;;5060193;28;20068;-86
2022/03/20 02:21:39;;;;;;;6.25;5.60;;;;;;;;;;5035024;28;20052;-85
2022/03/20 02:24:06;;;;;;;8.27;6.15;;;;;;;;;;5045279;28;20048;-85
2022/03/20 02:26:35;;;;;;;6.57;5.78;;;;;;;;;;5056869;28;20087;-85
2022/03/20 02:29:02;;;;;;;7.03;6.28;;;;;;;;;;5030008;28;20061;-85
2022/03/20 02:31:28;;;;;;;7.22;6.35;;;;;;;;;;5040832;28;20079;-85
2022/03/20 02:33:54;;;;;;;7.70;6.20;;;;;;;;;;5056893;28;20064;-85
2022/03/20 02:36:23;;;;;;;7.43;6.00;;;;;;;;;;5059305;28;20052;-86
2022/03/20 02:38:49;;;;;;;7.95;6.30;;;;;;;;;;5038808;28;20086;-86
2022/03/20 02:41:15;;;;;;;7.30;6.13;;;;;;;;;;5052519;28;20051;-85
2022/03/20 02:43:49;;;;;;;9.52;7.38;;;;;;;;;;5034522;28;20124;-86
2022/03/20 02:46:15;;;;;;;7.05;6.30;;;;;;;;;;5031672;28;20045;-86
2022/03/20 02:48:42;;;;;;;7.68;6.43;;;;;;;;;;5039030;28;20049;-86
2022/03/20 02:51:08;;;;;;;7.85;6.25;;;;;;;;;;5035019;28;20037;-86
2022/03/20 02:53:36;;;;;;;8.88;6.32;;;;;;;;;;5049228;28;20837;-85
2022/03/20 02:56:03;;;;;;;7.72;6.38;;;;;;;;;;5047009;28;20052;-86
2022/03/20 02:58:29;;;;;;;7.93;6.82;;;;;;;;;;5062002;28;20053;-86
2022/03/20 03:00:57;;;;;;;8.27;6.68;;;;;;;;;;5061463;28;20041;-86
2022/03/20 03:03:23;;;;;;;8.25;6.50;;;;;;;;;;5045838;28;20048;-86
2022/03/20 03:05:49;;;;;;;10.55;7.03;;;;;;;;;;5033108;28;20045;-86
2022/03/20 03:11:02;;;;;;;8.80;6.45;;;;;;;;;;5033424;28;20389;-85
2022/03/20 03:13:39;;;;;;;7.65;6.32;;;;;;;;;;5051804;28;20047;-86
2022/03/20 03:16:06;;;;;;;8.57;7.07;;;;;;;;;;5058348;28;20036;-86
2022/03/20 03:18:32;;;;;;;8.45;6.50;;;;;;;;;;5040749;28;20083;-86
2022/03/20 03:20:59;;;;;;;8.20;7.30;;;;;;;;;;5054112;28;20079;-86
2022/03/20 03:23:25;;;;;;;7.82;6.47;;;;;;;;;;5077807;28;20418;-86
2022/03/20 03:25:52;;;;;;;8.50;6.65;;;;;;;;;;5052403;28;20137;-85
2022/03/20 03:28:18;;;;;;;8.38;6.85;;;;;;;;;;5054749;28;20037;-86
2022/03/20 03:30:45;;;;;;;10.50;7.35;;;;;;;;;;5036624;28;20400;-86
2022/03/20 03:33:11;;;;;;;8.43;7.00;;;;;;;;;;5064237;28;20052;-86
2022/03/20 03:35:57;;;;;;;8.75;7.07;;;;;;;;;;5041764;28;20130;-86
2022/03/20 03:38:35;;;;;;;9.52;7.40;;;;;;;;;;5053122;28;20040;-85
2022/03/20 03:41:02;;;;;;;8.45;6.70;;;;;;;;;;5031182;28;20040;-86
2022/03/20 03:43:28;;;;;;;9.85;7.63;;;;;;;;;;5049252;28;20036;-85
2022/03/20 03:45:56;;;;;;;9.70;7.47;;;;;;;;;;5038771;28;20084;-86
2022/03/20 03:48:22;;;;;;;10.35;7.35;;;;;;;;;;5046226;28;20412;-86
2022/03/20 03:50:49;;;;;;;10.77;8.05;;;;;;;;;;5035933;28;20062;-86
2022/03/20 03:53:15;;;;;;;9.30;7.38;;;;;;;;;;5060301;28;20420;-86
2022/03/20 03:55:43;;;;;;;10.57;7.50;;;;;;;;;;5056274;28;20106;-86
2022/03/20 03:58:13;;;;;;;9.98;7.95;;;;;;;;;;5036950;28;20044;-85
2022/03/20 04:00:39;;;;;;;9.38;7.75;;;;;;;;;;5027593;28;20102;-87
2022/03/20 04:03:05;;;;;;;10.40;7.88;;;;;;;;;;5060206;28;20029;-86
2022/03/20 04:05:31;;;;;;;9.48;7.65;;;;;;;;;;5046493;28;20128;-86
2022/03/20 04:07:57;;;;;;;8.77;7.88;;;;;;;;;;5035853;28;20439;-86
2022/03/20 04:10:27;;;;;;;12.25;8.43;;;;;;;;;;5053127;28;20041;-85
2022/03/20 04:12:54;;;;;;;11.30;7.90;;;;;;;;;;5055012;28;20055;-86
2022/03/20 04:15:24;;;;;;;9.77;8.30;;;;;;;;;;5040549;28;20067;-85
2022/03/20 04:17:51;;;;;;;10.77;8.55;;;;;;;;;;5054511;28;20112;-86
2022/03/20 04:20:17;;;;;;;10.35;8.32;;;;;;;;;;5042590;28;20576;-85
2022/03/20 04:25:29;;;;;;;10.90;8.73;;;;;;;;;;5041117;28;20076;-85
2022/03/20 04:27:56;;;;;;;11.00;8.82;;;;;;;;;;5028942;28;20045;-85
2022/03/20 04:30:25;;;;;;;10.98;9.18;;;;;;;;;;5063429;28;20036;-86
2022/03/20 04:32:51;;;;;;;12.95;9.27;;;;;;;;;;5058539;28;20056;-85
2022/03/20 04:35:17;;;;;;;11.25;9.02;;;;;;;;;;5036071;28;20094;-86
2022/03/20 04:37:44;;;;;;;11.15;8.95;;;;;;;;;;5056524;28;20532;-85
2022/03/20 04:40:10;;;;;;;10.63;9.52;;;;;;;;;;5034747;28;20040;-86
2022/03/20 04:42:36;;;;;;;11.23;8.60;;;;;;;;;;5040784;28;20505;-86
2022/03/20 04:45:04;;;;;;;11.93;8.38;;;;;;;;;;5050618;28;20037;-86
2022/03/20 04:58:29;;;;;;;10.95;9.15;;;;;;;;;;5037610;28;20040;-85
2022/03/20 05:00:55;;;;;;;12.48;9.52;;;;;;;;;;5030661;28;20132;-86
2022/03/20 05:03:21;;;;;;;12.43;9.57;;;;;;;;;;5031118;28;20048;-86
2022/03/20 05:05:47;;;;;;;11.30;10.10;;;;;;;;;;5039340;28;20041;-86
2022/03/20 05:08:13;;;;;;;13.05;10.35;;;;;;;;;;5050873;28;20491;-86
2022/03/20 05:13:25;;;;;;;13.07;10.05;;;;;;;;;;5047961;28;20040;-85
2022/03/20 05:15:54;;;;;;;12.80;10.27;;;;;;;;;;5036658;28;20098;-85
2022/03/20 05:18:20;;;;;;;12.63;10.27;;;;;;;;;;5021059;28;20048;-86
2022/03/20 05:20:46;;;;;;;12.50;10.32;;;;;;;;;;5052617;28;20053;-85
2022/03/20 05:23:12;;;;;;;10.98;9.75;;;;;;;;;;5034866;28;20421;-85
2022/03/20 05:25:38;;;;;;;12.25;10.48;;;;;;;;;;5031147;28;20045;-86
2022/03/20 05:28:04;;;;;;;13.13;10.73;;;;;;;;;;5062475;28;20044;-86
2022/03/20 05:30:31;;;;;;;13.52;10.48;;;;;;;;;;5038362;28;20477;-86
2022/03/20 05:32:57;;;;;;;13.75;10.48;;;;;;;;;;5060975;28;20051;-86
2022/03/20 05:35:23;;;;;;;15.32;10.32;;;;;;;;;;5029427;28;20045;-86
2022/03/20 05:37:49;;;;;;;13.95;10.40;;;;;;;;;;5049428;28;20493;-86
2022/03/20 05:40:16;;;;;;;14.05;10.63;;;;;;;;;;5048972;28;20114;-86
2022/03/20 05:42:45;;;;;;;13.77;10.98;;;;;;;;;;5049204;28;20060;-86
2022/03/20 05:45:11;;;;;;;12.02;10.65;;;;;;;;;;5047251;28;20074;-86
2022/03/20 05:47:38;;;;;;;12.82;10.65;;;;;;;;;;5029151;28;20044;-86
2022/03/20 05:50:05;;;;;;;12.75;10.73;;;;;;;;;;5031331;28;20178;-87
2022/03/20 05:52:31;;;;;;;14.88;10.25;;;;;;;;;;5043414;28;20759;-86
2022/03/20 05:55:01;;;;;;;14.23;11.13;;;;;;;;;;5033284;28;20051;-86
2022/03/20 06:00:20;;;;;;;15.15;11.18;;;;;;;;;;5020192;28;20052;-85
2022/03/20 06:02:47;;;;;;;12.30;11.00;;;;;;;;;;5050504;28;20049;-85
2022/03/20 06:05:13;;;;;;;13.88;11.35;;;;;;;;;;5049219;28;20060;-85
2022/03/20 06:07:52;;;;;;;14.25;11.50;;;;;;;;;;5049833;28;20045;-85
2022/03/20 06:10:19;;;;;;;12.68;10.60;;;;;;;;;;5031848;28;20500;-85
2022/03/20 06:12:45;;;;;;;14.85;11.43;;;;;;;;;;5040060;28;20124;-86
2022/03/20 06:15:12;;;;;;;11.55;10.35;;;;;;;;;;5059170;28;20045;-86
2022/03/20 06:17:47;;;;;;;14.65;12.00;;;;;;;;;;5037034;28;20049;-85
2022/03/20 06:20:14;;;;;;;14.00;11.05;;;;;;;;;;5044057;28;20106;-85
2022/03/20 06:22:49;;;;;;;12.23;10.95;;;;;;;;;;5042540;28;20052;-86
2022/03/20 06:25:15;;;;;;;12.25;10.68;;;;;;;;;;5051238;28;20040;-85
2022/03/20 06:27:56;;;;;;;13.48;11.77;;;;;;;;;;5048324;28;20051;-85
2022/03/20 06:30:22;;;;;;;13.32;10.57;;;;;;;;;;5054359;28;20174;-85
2022/03/20 06:32:49;;;;;;;12.55;11.10;;;;;;;;;;5040042;28;20123;-85
2022/03/20 06:35:19;;;;;;;13.20;11.75;;;;;;;;;;5057634;28;20155;-85
2022/03/20 06:37:46;;;;;;;13.02;11.35;;;;;;;;;;5060510;28;20151;-85
2022/03/20 06:40:13;;;;;;;15.32;11.85;;;;;;;;;;5049451;28;20025;-84
2022/03/20 06:42:43;;;;;;;13.48;11.70;;;;;;;;;;5086287;28;20052;-85
2022/03/20 06:45:11;;;;;;;12.93;11.57;;;;;;;;;;5063905;28;20037;-85
2022/03/20 06:47:38;;;;;;;17.13;12.35;;;;;;;;;;5024613;28;20056;-84
2022/03/20 06:50:05;;;;;;;13.40;12.00;;;;;;;;;;5052081;28;20097;-84
2022/03/20 06:52:31;;;;;;;14.38;11.55;;;;;;;;;;5040755;28;20103;-85
2022/03/20 06:54:58;;;;;;;14.65;11.60;;;;;;;;;;5050201;28;20182;-85
2022/03/20 06:57:25;;;;;;;13.52;11.68;;;;;;;;;;5040110;28;20086;-85
2022/03/20 06:59:52;;;;;;;14.48;11.82;;;;;;;;;;5023578;28;21560;-85
2022/03/20 07:02:19;;;;;;;13.38;11.57;;;;;;;;;;5034066;28;20041;-85
2022/03/20 07:04:47;;;;;;;14.50;11.63;;;;;;;;;;5039940;28;20049;-86
2022/03/20 07:07:14;;;;;;;12.65;10.93;;;;;;;;;;5043476;28;20047;-85
2022/03/20 07:09:40;;;;;;;10.38;8.43;;;;;;;;;;5062626;28;20063;-85
2022/03/20 07:12:07;;;;;;;14.18;12.68;;;;;;;;;;5039982;28;20448;-85
2022/03/20 07:14:34;;;;;;;12.25;9.88;;;;;;;;;;5033520;28;20053;-84
2022/03/20 07:17:00;;;;;;;14.60;11.73;;;;;;;;;;5038199;28;20071;-86
2022/03/20 07:19:26;;;;;;;15.07;11.38;;;;;;;;;;5050655;28;20083;-86
2022/03/20 07:21:53;;;;;;;13.48;10.27;;;;;;;;;;5051547;28;20041;-86
2022/03/20 07:24:19;;;;;;;14.80;11.15;;;;;;;;;;5061035;28;20132;-86
2022/03/20 07:29:29;;;;;;;15.63;12.73;;;;;;;;;;5029079;28;20441;-86
2022/03/20 07:31:57;;;;;;;14.05;12.48;;;;;;;;;;5054148;28;20048;-85
2022/03/20 07:34:23;;;;;;;15.07;12.35;;;;;;;;;;5033832;28;21488;-87
2022/03/20 07:36:50;;;;;;;15.02;12.00;;;;;;;;;;5052084;28;20048;-86
2022/03/20 07:39:16;;;;;;;14.23;12.13;;;;;;;;;;5033439;28;20052;-86
2022/03/20 07:41:42;;;;;;;13.95;11.82;;;;;;;;;;5048119;28;20041;-86
2022/03/20 07:44:08;;;;;;;15.57;13.02;;;;;;;;;;5075719;22;20041;-86
2022/03/20 07:46:52;;;;;;;13.98;11.05;;;;;;;;;;5051242;28;20434;-86
2022/03/20 07:49:19;;;;;;;;;;;;;;;;;;5069670;28;20049;-86
2022/03/20 07:51:46;;;;;;;14.23;12.13;;;;;;;;;;5046781;28;20388;-86
2022/03/20 07:54:12;;;;;;;14.40;12.90;;;;;;;;;;5051595;28;20064;-86
2022/03/20 07:56:48;;;;;;;;;;;;;;;;;;;;;
2022/03/20 07:59:18;;;;;;;13.73;11.40;;;;;;;;;;5050965;28;20124;-86
2022/03/20 08:01:44;;;;;;;14.50;12.65;;;;;;;;;;5050634;28;20541;-86
2022/03/20 08:04:10;;;;;;;15.75;12.30;;;;;;;;;;5051643;28;20570;-86
2022/03/20 08:06:37;;;;;;;13.80;11.25;;;;;;;;;;5066464;28;20488;-86
2022/03/20 08:09:03;;;;;;;14.35;11.23;;;;;;;;;;5069486;28;20085;-86
2022/03/20 08:11:44;;;;;;;13.57;11.57;;;;;;;;;;5049746;28;20041;-86
2022/03/20 08:14:10;;;;;;;14.43;12.93;;;;;;;;;;5053718;28;20044;-86
2022/03/20 08:16:39;;;;;;;14.93;11.75;;;;;;;;;;5054843;28;20032;-86
2022/03/20 08:19:12;;;;;;;13.90;12.15;;;;;;;;;;5052419;28;20124;-86
2022/03/20 08:21:39;;;;;;;;;;;;;;;;;;5048736;28;20049;-86
2022/03/20 08:26:53;;;;;;;13.27;11.43;;;;;;;;;;5069410;28;20087;-85
2022/03/20 08:29:34;;;;;;;15.52;13.27;;;;;;;;;;5055559;28;20439;-86
2022/03/20 08:32:00;;;;;;;13.98;11.73;;;;;;;;;;5067995;28;20040;-85
2022/03/20 08:34:28;;;;;;;15.07;12.15;;;;;;;;;;5063620;28;20072;-85
2022/03/20 08:37:09;;;;;;;15.65;12.98;;;;;;;;;;5063967;28;20063;-84
2022/03/20 08:39:35;;;;;;;16.10;12.48;;;;;;;;;;5073170;22;20076;-85
2022/03/20 08:42:03;;;;;;;16.95;11.23;;;;;;;;;;5089338;28;20095;-85
2022/03/20 08:44:29;;;;;;;13.95;9.38;;;;;;;;;;5070268;28;20250;-86
2022/03/20 08:46:58;;;;;;;15.57;13.57;;;;;;;;;;5087966;28;20044;-86
2022/03/20 08:49:25;;;;;;;15.52;11.07;;;;;;;;;;5066276;28;20089;-85
2022/03/20 08:51:51;;;;;;;14.77;12.88;;;;;;;;;;5083809;28;20046;-85
2022/03/20 08:54:29;;;;;;;15.50;13.35;;;;;;;;;;5070709;28;20074;-85
2022/03/20 08:56:56;;;;;;;15.27;11.38;;;;;;;;;;5083720;28;20056;-86
2022/03/20 08:59:22;;;;;;;16.40;12.88;;;;;;;;;;5067309;28;20044;-86
2022/03/20 09:01:57;;;;;;;15.68;13.55;;;;;;;;;;5068112;28;20047;-86
2022/03/20 09:04:23;;;;;;;15.35;13.27;;;;;;;;;;5090734;28;20040;-86
2022/03/20 09:06:50;;;;;;;16.02;13.10;;;;;;;;;;5088564;28;20051;-80
2022/03/20 09:09:16;;;;;;;15.90;13.80;;;;;;;;;;5059375;28;20075;-84
2022/03/20 09:11:44;;;;;;;17.40;14.25;;;;;;;;;;5081984;28;20071;-85
2022/03/20 09:14:10;;;;;;;15.00;13.30;;;;;;;;;;5086610;28;20377;-84
2022/03/20 09:19:21;;;;;;;15.00;13.43;;;;;;;;;;5056794;28;20429;-84
2022/03/20 09:21:47;;;;;;;17.45;13.63;;;;;;;;;;5069509;28;20495;-84
2022/03/20 09:24:13;;;;;;;15.35;13.40;;;;;;;;;;5085885;28;20063;-83
2022/03/20 09:26:39;;;;;;;16.90;13.50;;;;;;;;;;5070507;28;20044;-85
2022/03/20 09:29:05;;;;;;;14.52;13.02;;;;;;;;;;5068155;28;20044;-84
2022/03/20 09:31:31;;;;;;;15.45;13.73;;;;;;;;;;5084219;28;20051;-85
2022/03/20 09:33:58;;;;;;;15.80;14.10;;;;;;;;;;5069116;28;20492;-86
2022/03/20 09:36:24;;;;;;;14.75;13.18;;;;;;;;;;5085969;28;20040;-86
2022/03/20 09:38:51;;;;;;;17.20;13.65;;;;;;;;;;5083647;28;20060;-86
2022/03/20 09:41:17;;;;;;;14.95;12.70;;;;;;;;;;5069459;28;20048;-86
2022/03/20 09:43:44;;;;;;;14.93;13.07;;;;;;;;;;5079044;28;20127;-86
2022/03/20 09:46:10;;;;;;;15.18;12.35;;;;;;;;;;5071817;28;20032;-85
2022/03/20 09:48:36;;;;;;;15.25;13.45;;;;;;;;;;5085455;28;20044;-86
2022/03/20 09:51:04;;;;;;;15.80;13.63;;;;;;;;;;5079878;28;20033;-86
2022/03/20 09:53:30;;;;;;;15.48;13.48;;;;;;;;;;5086228;28;20070;-86
2022/03/20 09:55:57;;;;;;;15.45;13.00;;;;;;;;;;5087526;28;20051;-87
2022/03/20 09:58:27;;;;;;;15.32;13.65;;;;;;;;;;5094058;28;20105;-85
2022/03/20 10:00:54;;;;;;;16.85;14.68;;;;;;;;;;5089714;28;20081;-83
2022/03/20 10:03:21;;;;;;;16.73;13.90;;;;;;;;;;5078232;28;20043;-81
2022/03/20 10:06:04;;;;;;;15.27;12.10;;;;;;;;;;5081040;28;20070;-81
2022/03/20 10:08:31;;;;;;;15.07;13.13;;;;;;;;;;5092277;28;20495;-82
2022/03/20 10:11:11;;;;;;;17.13;15.18;;;;;;;;;;5085245;28;20119;-82
2022/03/20 10:13:37;;;;;;;16.35;14.23;;;;;;;;;;5068218;28;20094;-81
2022/03/20 10:16:17;;;;;;;16.58;13.13;;;;;;;;;;5092146;28;20135;-82
2022/03/20 10:18:43;;;;;;;16.13;14.43;;;;;;;;;;5072722;28;20093;-81
2022/03/20 10:21:12;;;;;;;16.88;14.57;;;;;;;;;;5070748;28;20075;-80
2022/03/20 10:23:39;;;;;;;17.70;14.40;;;;;;;;;;5086896;28;20043;-82
2022/03/20 10:26:10;;;;;;;14.40;12.65;;;;;;;;;;5089579;28;20146;-81
2022/03/20 10:28:43;;;;;;;17.20;14.77;;;;;;;;;;5082674;28;20450;-81
2022/03/20 10:31:10;;;;;;;16.42;14.73;;;;;;;;;;5082869;28;20044;-80
2022/03/20 10:33:40;;;;;;;16.90;15.10;;;;;;;;;;5083664;28;20044;-81
2022/03/20 10:36:09;;;;;;;15.05;12.48;;;;;;;;;;5084539;28;20408;-80
2022/03/20 10:38:38;;;;;;;15.18;13.23;;;;;;;;;;5087550;28;20168;-79
2022/03/20 10:41:18;;;;;;;15.38;12.88;;;;;;;;;;5084250;28;20400;-83
2022/03/20 10:43:46;;;;;;;16.73;14.93;;;;;;;;;;5090370;28;20044;-83
2022/03/20 10:46:20;;;;;;;17.00;14.50;;;;;;;;;;5073144;28;20044;-82
2022/03/20 10:48:52;;;;;;;16.45;14.63;;;;;;;;;;5086876;28;20407;-82
2022/03/20 10:51:37;;;;;;;16.65;14.80;;;;;;;;;;5071029;28;20037;-82
2022/03/20 10:54:04;;;;;;;16.38;14.70;;;;;;;;;;5087472;28;20051;-84
2022/03/20 10:56:31;;;;;;;16.38;13.80;;;;;;;;;;5071972;23;22141;-80
2022/03/20 10:58:57;;;;;;;16.63;14.85;;;;;;;;;;5063850;28;20131;-85
2022/03/20 11:01:39;;;;;;;18.10;14.82;;;;;;;;;;5069789;28;20055;-85
2022/03/20 11:04:05;;;;;;;17.90;15.55;;;;;;;;;;5069474;28;20037;-86
2022/03/20 11:06:31;;;;;;;17.15;15.30;;;;;;;;;;5067726;28;20033;-87
2022/03/20 11:08:57;;;;;;;16.45;14.73;;;;;;;;;;5067512;28;20071;-86
2022/03/20 11:11:24;;;;;;;18.55;15.88;;;;;;;;;;5071769;28;20060;-93
2022/03/20 11:13:51;;;;;;;17.25;15.45;;;;;;;;;;5070215;28;20408;-85
2022/03/20 11:16:22;;;;;;;16.02;13.93;;;;;;;;;;5069445;28;20123;-90
2022/03/20 11:18:51;;;;;;;17.80;14.45;;;;;;;;;;5067890;28;20369;-80
2022/03/20 11:21:21;;;;;;;17.88;15.95;;;;;;;;;;5063968;28;20056;-87
2022/03/20 11:23:47;;;;;;;17.60;15.10;;;;;;;;;;5068603;28;20041;-83
2022/03/20 11:26:14;;;;;;;18.45;15.95;;;;;;;;;;5067171;28;20540;-89
2022/03/20 11:28:45;;;;;;;16.30;14.60;;;;;;;;;;5070460;28;20404;-84
2022/03/20 11:31:12;;;;;;;16.80;14.18;;;;;;;;;;5066987;28;20119;-86
2022/03/20 11:33:39;;;;;;;16.10;14.18;;;;;;;;;;5070577;28;20044;-83
2022/03/20 11:36:05;;;;;;;17.65;15.88;;;;;;;;;;5066880;28;20033;-83
2022/03/20 11:38:35;;;;;;;17.15;14.18;;;;;;;;;;5067767;28;20166;-85
2022/03/20 11:41:06;;;;;;;17.40;15.18;;;;;;;;;;5074748;28;20074;-84
2022/03/20 11:43:32;;;;;;;17.77;15.90;;;;;;;;;;5061027;28;20121;-83
2022/03/20 11:46:36;;;;;;;17.20;15.35;;;;;;;;;;5071656;28;20361;-83
2022/03/20 11:49:26;;;;;;;17.60;15.10;;;;;;;;;;5064300;28;20041;-83
2022/03/20 11:52:15;;;;;;;17.23;14.85;;;;;;;;;;5069939;28;20061;-89
2022/03/20 11:54:51;;;;;;;19.63;15.43;;;;;;;;;;5070490;28;20072;-92
2022/03/20 11:57:41;;;;;;;17.35;15.55;;;;;;;;;;5066906;28;20051;-89
2022/03/20 12:00:11;;;;;;;17.60;15.65;;;;;;;;;;5072293;28;20041;-90
2022/03/20 12:02:49;;;;;;;16.88;14.35;;;;;;;;;;5072491;28;20051;-87
2022/03/20 12:05:21;;;;;;;17.17;14.60;;;;;;;;;;5066439;28;20483;-81
2022/03/20 12:10:43;;;;;;;17.90;15.80;;;;;;;;;;5195535;22;20139;-90
2022/03/20 12:13:43;;;;;;;18.58;16.58;;;;;;;;;;5067177;28;20464;-91
2022/03/20 12:16:09;;;;;;;16.23;14.60;;;;;;;;;;5067797;28;20048;-92
2022/03/20 12:18:57;;;;;;;18.02;16.23;;;;;;;;;;5085733;28;20094;-90
2022/03/20 12:21:43;;;;;;;16.10;14.23;;;;;;;;;;5072158;28;20051;-91
2022/03/20 12:27:29;;;;;;;18.52;16.13;;;;;;;;;;5056915;28;20513;-90
2022/03/20 12:30:31;;;;;;;18.48;16.42;;;;;;;;;;5085852;28;20389;-93
2022/03/20 12:33:00;;;;;;;17.88;16.08;;;;;;;;;;5071868;28;20073;-90
2022/03/20 12:35:26;;;;;;;21.38;15.75;;;;;;;;;;5090393;28;20040;-95
2022/03/20 12:37:53;;;;;;;19.02;17.02;;;;;;;;;;5070188;28;20047;-81
2022/03/20 12:40:19;;;;;;;17.67;15.93;;;;;;;;;;5061113;28;20082;-81
2022/03/20 12:42:55;;;;;;;17.80;15.75;;;;;;;;;;5086956;28;20056;-93
2022/03/20 12:45:21;;;;;;;16.70;14.25;;;;;;;;;;5087494;28;20039;-85
2022/03/20 12:47:57;;;;;;;18.67;16.88;;;;;;;;;;5084925;28;20063;-87
2022/03/20 12:50:36;;;;;;;18.38;16.52;;;;;;;;;;5065081;28;20037;-95
2022/03/20 12:59:38;;;;;;;18.63;16.63;;;;;;;;;;5091281;28;20039;-94
2022/03/20 13:02:05;;;;;;;18.20;16.20;;;;;;;;;;5100455;28;20036;-89
2022/03/20 13:04:31;;;;;;;18.52;16.67;;;;;;;;;;5071756;28;20045;-88
2022/03/20 13:06:57;;;;;;;17.80;16.00;;;;;;;;;;5072650;28;20024;-90
2022/03/20 13:09:23;;;;;;;19.30;17.30;;;;;;;;;;5089539;28;20061;-87
2022/03/20 13:11:51;;;;;;;17.95;16.05;;;;;;;;;;5089540;28;20050;-88
2022/03/20 13:14:17;;;;;;;18.67;16.80;;;;;;;;;;5063981;28;20048;-90
2022/03/20 13:16:53;;;;;;;17.30;15.60;;;;;;;;;;5077806;28;20090;-91
2022/03/20 13:19:26;;;;;;;18.02;16.27;;;;;;;;;;5083163;28;20050;-92
2022/03/20 13:21:52;;;;;;;18.67;16.88;;;;;;;;;;5080225;28;20082;-92
2022/03/20 13:24:31;;;;;;;18.02;16.13;;;;;;;;;;5084511;28;20154;-91
2022/03/20 13:27:04;;;;;;;17.83;15.73;;;;;;;;;;5070491;28;20056;-89
2022/03/20 13:29:32;;;;;;;20.40;16.85;;;;;;;;;;5097618;28;20068;-90
2022/03/20 13:32:06;;;;;;;18.38;16.42;;;;;;;;;;5085550;28;20048;-91
2022/03/20 13:34:33;;;;;;;19.77;17.67;;;;;;;;;;5087715;28;20135;-91
2022/03/20 13:37:10;;;;;;;21.88;19.67;;;;;;;;;;5083533;28;20063;-90
2022/03/20 13:39:37;;;;;;;18.23;16.52;;;;;;;;;;5071132;28;20051;-92
2022/03/20 13:42:15;;;;;;;19.60;17.70;;;;;;;;;;5082949;28;20036;-88
2022/03/20 13:44:44;;;;;;;18.55;16.67;;;;;;;;;;5075124;28;20048;-87
2022/03/20 13:47:10;;;;;;;19.92;16.92;;;;;;;;;;5079932;28;20123;-88
2022/03/20 13:49:36;;;;;;;18.25;16.38;;;;;;;;;;5076959;28;20391;-88
2022/03/20 13:52:03;;;;;;;18.95;17.05;;;;;;;;;;5058722;28;20058;-86
2022/03/20 13:54:29;;;;;;;18.88;16.98;;;;;;;;;;5082604;28;20135;-80
2022/03/20 13:57:08;;;;;;;19.88;17.73;;;;;;;;;;5060842;28;20517;-80
2022/03/20 13:59:50;;;;;;;18.90;17.00;;;;;;;;;;5056120;28;20044;-80
2022/03/20 14:02:17;;;;;;;19.80;17.67;;;;;;;;;;5076441;28;20075;-80
2022/03/20 14:04:47;;;;;;;18.80;16.90;;;;;;;;;;5079192;28;20029;-79
2022/03/20 14:07:18;;;;;;;19.30;17.30;;;;;;;;;;5076391;28;20125;-82
2022/03/20 14:09:53;;;;;;;19.60;17.55;;;;;;;;;;5061084;28;20059;-84
2022/03/20 14:12:30;;;;;;;18.98;17.08;;;;;;;;;;5074982;28;20049;-80
2022/03/20 14:14:56;;;;;;;19.50;17.50;;;;;;;;;;5059885;28;20403;-84
2022/03/20 14:17:41;;;;;;;19.10;17.00;;;;;;;;;;5078098;28;20048;-82
2022/03/20 14:20:22;;;;;;;19.13;17.10;;;;;;;;;;5078665;28;20040;-81
2022/03/20 14:22:57;;;;;;;18.35;16.50;;;;;;;;;;5076269;28;20040;-81
2022/03/20 14:25:30;;;;;;;19.20;17.00;;;;;;;;;;5062475;28;20044;-82
2022/03/20 14:28:00;;;;;;;18.67;16.77;;;;;;;;;;5090310;28;20048;-89
2022/03/20 14:41:32;;;;;;;19.05;17.10;;;;;;;;;;5065609;28;20090;-80
2022/03/20 14:44:08;;;;;;;19.40;17.40;;;;;;;;;;5065386;28;20052;-86
2022/03/20 14:46:35;;;;;;;19.67;17.17;;;;;;;;;;5082537;28;20047;-79
2022/03/20 14:49:03;;;;;;;18.80;16.42;;;;;;;;;;5065863;28;20059;-81
2022/03/20 14:51:30;;;;;;;19.77;17.77;;;;;;;;;;5057860;28;20182;-81
2022/03/20 14:53:56;;;;;;;21.40;17.13;;;;;;;;;;5063289;28;20075;-79
2022/03/20 14:56:22;;;;;;;19.77;17.88;;;;;;;;;;5086760;28;20043;-80
2022/03/20 14:58:49;;;;;;;25.00;22.45;;;;;;;;;;5076479;28;20044;-78
2022/03/20 15:01:21;;;;;;;21.00;18.90;;;;;;;;;;5087837;28;20095;-84
2022/03/20 15:03:48;;;;;;;21.13;18.60;;;;;;;;;;5093458;28;20048;-85
2022/03/20 15:06:14;;;;;;;19.83;17.70;;;;;;;;;;5093449;28;20036;-82
2022/03/20 15:11:25;;;;;;;21.75;18.20;;;;;;;;;;5093229;28;20059;-79
2022/03/20 15:13:53;;;;;;;22.60;20.40;;;;;;;;;;5088028;28;20049;-83
2022/03/20 15:16:19;;;;;;;23.48;21.17;;;;;;;;;;5079722;28;20032;-87
2022/03/20 15:18:45;;;;;;;22.38;20.02;;;;;;;;;;5086830;28;20472;-85
2022/03/20 15:21:13;;;;;;;24.38;21.90;;;;;;;;;;5201083;22;20044;-81
2022/03/20 15:23:39;;;;;;;23.15;20.85;;;;;;;;;;5088473;28;20503;-81
2022/03/20 15:26:05;;;;;;;23.58;21.08;;;;;;;;;;5070831;28;20083;-80
2022/03/20 15:28:32;;;;;;;25.02;22.42;;;;;;;;;;5078422;28;20067;-81
2022/03/20 15:30:59;;;;;;;26.08;23.42;;;;;;;;;;5075395;28;20040;-83
2022/03/20 15:33:25;;;;;;;25.70;23.08;;;;;;;;;;5067994;28;20484;-81
2022/03/20 15:35:52;;;;;;;24.67;22.08;;;;;;;;;;5091177;28;20047;-80